sensor_id;sensor_type;location;lat;lon;timestamp;P1;durP1;ratioP1;P2;durP2;ratioP2
36415;SDS011;22447;44.530;18.620;2023-12-07T00:01:26;61.60;;;33.33;;
36415;SDS011;22447;44.530;18.620;2023-12-07T00:03:52;62.60;;;34.00;;
36415;SDS011;22447;44.530;18.620;2023-12-07T00:06:18;64.28;;;36.25;;
36415;SDS011;22447;44.530;18.620;2023-12-07T00:08:43;61.63;;;31.73;;
36415;SDS011;22447;44.530;18.620;2023-12-07T00:11:09;52.83;;;29.73;;
36415;SDS011;22447;44.530;18.620;2023-12-07T00:13:35;60.28;;;33.58;;
36415;SDS011;22447;44.530;18.620;2023-12-07T00:16:01;64.95;;;34.45;;
36415;SDS011;22447;44.530;18.620;2023-12-07T00:18:27;58.35;;;31.60;;
36415;SDS011;22447;44.530;18.620;2023-12-07T00:20:53;57.17;;;29.90;;
36415;SDS011;22447;44.530;18.620;2023-12-07T00:23:19;53.70;;;29.10;;
36415;SDS011;22447;44.530;18.620;2023-12-07T00:25:45;55.25;;;29.35;;
36415;SDS011;22447;44.530;18.620;2023-12-07T00:28:11;53.03;;;28.73;;
36415;SDS011;22447;44.530;18.620;2023-12-07T00:30:37;55.55;;;29.50;;
36415;SDS011;22447;44.530;18.620;2023-12-07T00:33:03;54.38;;;28.85;;
36415;SDS011;22447;44.530;18.620;2023-12-07T00:35:28;55.78;;;28.73;;
36415;SDS011;22447;44.530;18.620;2023-12-07T00:37:57;55.45;;;29.15;;
36415;SDS011;22447;44.530;18.620;2023-12-07T00:40:23;72.35;;;34.67;;
36415;SDS011;22447;44.530;18.620;2023-12-07T00:42:49;103.97;;;44.85;;
36415;SDS011;22447;44.530;18.620;2023-12-07T00:45:15;76.00;;;36.92;;
36415;SDS011;22447;44.530;18.620;2023-12-07T00:47:41;63.42;;;32.35;;
36415;SDS011;22447;44.530;18.620;2023-12-07T00:50:07;54.80;;;28.98;;
36415;SDS011;22447;44.530;18.620;2023-12-07T00:52:33;50.47;;;26.48;;
36415;SDS011;22447;44.530;18.620;2023-12-07T00:54:59;58.53;;;29.63;;
36415;SDS011;22447;44.530;18.620;2023-12-07T00:57:25;56.22;;;28.92;;
36415;SDS011;22447;44.530;18.620;2023-12-07T00:59:51;54.05;;;27.42;;
36415;SDS011;22447;44.530;18.620;2023-12-07T01:02:17;56.33;;;28.38;;
36415;SDS011;22447;44.530;18.620;2023-12-07T01:04:43;53.90;;;28.55;;
36415;SDS011;22447;44.530;18.620;2023-12-07T01:07:09;56.05;;;27.52;;
36415;SDS011;22447;44.530;18.620;2023-12-07T01:09:35;63.60;;;32.55;;
36415;SDS011;22447;44.530;18.620;2023-12-07T01:12:01;56.42;;;29.60;;
36415;SDS011;22447;44.530;18.620;2023-12-07T01:14:27;60.45;;;29.13;;
36415;SDS011;22447;44.530;18.620;2023-12-07T01:16:53;59.13;;;30.20;;
36415;SDS011;22447;44.530;18.620;2023-12-07T01:19:19;58.40;;;27.95;;
36415;SDS011;22447;44.530;18.620;2023-12-07T01:21:44;59.17;;;30.45;;
36415;SDS011;22447;44.530;18.620;2023-12-07T01:24:10;60.92;;;32.05;;
36415;SDS011;22447;44.530;18.620;2023-12-07T01:26:36;69.85;;;33.70;;
36415;SDS011;22447;44.530;18.620;2023-12-07T01:29:02;66.72;;;34.22;;
36415;SDS011;22447;44.530;18.620;2023-12-07T01:31:28;68.95;;;34.65;;
36415;SDS011;22447;44.530;18.620;2023-12-07T01:33:55;90.63;;;42.65;;
36415;SDS011;22447;44.530;18.620;2023-12-07T01:36:21;76.13;;;37.92;;
36415;SDS011;22447;44.530;18.620;2023-12-07T01:38:47;91.32;;;42.67;;
36415;SDS011;22447;44.530;18.620;2023-12-07T01:41:13;86.03;;;41.72;;
36415;SDS011;22447;44.530;18.620;2023-12-07T01:43:44;77.65;;;39.53;;
36415;SDS011;22447;44.530;18.620;2023-12-07T01:46:11;83.00;;;40.75;;
36415;SDS011;22447;44.530;18.620;2023-12-07T01:48:37;79.88;;;39.15;;
36415;SDS011;22447;44.530;18.620;2023-12-07T01:51:03;80.50;;;40.05;;
36415;SDS011;22447;44.530;18.620;2023-12-07T01:53:29;82.40;;;39.83;;
36415;SDS011;22447;44.530;18.620;2023-12-07T01:55:55;79.45;;;40.28;;
36415;SDS011;22447;44.530;18.620;2023-12-07T01:58:23;82.38;;;41.45;;
36415;SDS011;22447;44.530;18.620;2023-12-07T02:00:48;81.00;;;39.85;;
36415;SDS011;22447;44.530;18.620;2023-12-07T02:03:14;70.88;;;34.38;;
36415;SDS011;22447;44.530;18.620;2023-12-07T02:05:43;71.45;;;36.25;;
36415;SDS011;22447;44.530;18.620;2023-12-07T02:08:12;66.07;;;33.95;;
36415;SDS011;22447;44.530;18.620;2023-12-07T02:10:38;65.22;;;32.97;;
36415;SDS011;22447;44.530;18.620;2023-12-07T02:13:04;56.70;;;30.33;;
36415;SDS011;22447;44.530;18.620;2023-12-07T02:15:31;60.85;;;32.42;;
36415;SDS011;22447;44.530;18.620;2023-12-07T02:18:03;58.28;;;31.75;;
36415;SDS011;22447;44.530;18.620;2023-12-07T02:20:46;61.38;;;30.98;;
36415;SDS011;22447;44.530;18.620;2023-12-07T02:23:23;60.97;;;30.80;;
36415;SDS011;22447;44.530;18.620;2023-12-07T02:25:53;57.67;;;29.42;;
36415;SDS011;22447;44.530;18.620;2023-12-07T02:28:20;42.70;;;23.38;;
36415;SDS011;22447;44.530;18.620;2023-12-07T02:30:46;42.10;;;23.02;;
36415;SDS011;22447;44.530;18.620;2023-12-07T02:33:12;49.85;;;26.70;;
36415;SDS011;22447;44.530;18.620;2023-12-07T02:35:39;43.75;;;24.38;;
36415;SDS011;22447;44.530;18.620;2023-12-07T02:38:06;54.88;;;26.17;;
36415;SDS011;22447;44.530;18.620;2023-12-07T02:40:33;54.15;;;27.42;;
36415;SDS011;22447;44.530;18.620;2023-12-07T02:43:00;53.88;;;25.42;;
36415;SDS011;22447;44.530;18.620;2023-12-07T02:45:28;52.78;;;25.60;;
36415;SDS011;22447;44.530;18.620;2023-12-07T02:47:54;55.20;;;26.35;;
36415;SDS011;22447;44.530;18.620;2023-12-07T02:50:22;56.22;;;26.63;;
36415;SDS011;22447;44.530;18.620;2023-12-07T02:52:48;58.53;;;26.80;;
36415;SDS011;22447;44.530;18.620;2023-12-07T02:55:13;64.30;;;30.17;;
36415;SDS011;22447;44.530;18.620;2023-12-07T02:57:39;60.83;;;28.33;;
36415;SDS011;22447;44.530;18.620;2023-12-07T03:00:05;64.97;;;30.77;;
36415;SDS011;22447;44.530;18.620;2023-12-07T03:02:33;62.63;;;29.33;;
36415;SDS011;22447;44.530;18.620;2023-12-07T03:05:03;62.03;;;28.55;;
36415;SDS011;22447;44.530;18.620;2023-12-07T03:07:29;58.92;;;28.15;;
36415;SDS011;22447;44.530;18.620;2023-12-07T03:09:55;53.08;;;26.90;;
36415;SDS011;22447;44.530;18.620;2023-12-07T03:12:21;63.15;;;28.92;;
36415;SDS011;22447;44.530;18.620;2023-12-07T03:14:48;64.38;;;31.13;;
36415;SDS011;22447;44.530;18.620;2023-12-07T03:17:14;75.05;;;32.78;;
36415;SDS011;22447;44.530;18.620;2023-12-07T03:19:40;65.10;;;32.28;;
36415;SDS011;22447;44.530;18.620;2023-12-07T03:22:07;66.30;;;31.05;;
36415;SDS011;22447;44.530;18.620;2023-12-07T03:24:37;59.83;;;27.25;;
36415;SDS011;22447;44.530;18.620;2023-12-07T03:27:03;59.15;;;27.95;;
36415;SDS011;22447;44.530;18.620;2023-12-07T03:29:30;52.35;;;26.88;;
36415;SDS011;22447;44.530;18.620;2023-12-07T03:31:57;57.00;;;27.52;;
36415;SDS011;22447;44.530;18.620;2023-12-07T03:34:23;54.03;;;25.98;;
36415;SDS011;22447;44.530;18.620;2023-12-07T03:36:49;63.13;;;28.77;;
36415;SDS011;22447;44.530;18.620;2023-12-07T03:39:16;52.42;;;24.95;;
36415;SDS011;22447;44.530;18.620;2023-12-07T03:41:47;44.53;;;22.27;;
36415;SDS011;22447;44.530;18.620;2023-12-07T03:44:14;44.15;;;23.27;;
36415;SDS011;22447;44.530;18.620;2023-12-07T03:46:40;45.17;;;22.27;;
36415;SDS011;22447;44.530;18.620;2023-12-07T03:49:06;44.90;;;21.92;;
36415;SDS011;22447;44.530;18.620;2023-12-07T03:51:32;52.42;;;24.15;;
36415;SDS011;22447;44.530;18.620;2023-12-07T03:53:59;63.30;;;26.38;;
36415;SDS011;22447;44.530;18.620;2023-12-07T03:56:25;53.65;;;24.77;;
36415;SDS011;22447;44.530;18.620;2023-12-07T03:58:53;71.07;;;27.52;;
36415;SDS011;22447;44.530;18.620;2023-12-07T04:01:26;64.22;;;28.00;;
36415;SDS011;22447;44.530;18.620;2023-12-07T04:03:54;60.60;;;25.88;;
36415;SDS011;22447;44.530;18.620;2023-12-07T04:06:21;68.93;;;29.10;;
36415;SDS011;22447;44.530;18.620;2023-12-07T04:08:47;74.93;;;29.70;;
36415;SDS011;22447;44.530;18.620;2023-12-07T04:11:14;66.80;;;28.13;;
36415;SDS011;22447;44.530;18.620;2023-12-07T04:13:41;73.53;;;28.08;;
36415;SDS011;22447;44.530;18.620;2023-12-07T04:16:07;67.80;;;28.73;;
36415;SDS011;22447;44.530;18.620;2023-12-07T04:18:34;69.00;;;27.20;;
36415;SDS011;22447;44.530;18.620;2023-12-07T04:21:00;62.35;;;25.67;;
36415;SDS011;22447;44.530;18.620;2023-12-07T04:23:26;64.40;;;25.30;;
36415;SDS011;22447;44.530;18.620;2023-12-07T04:25:52;54.53;;;26.42;;
36415;SDS011;22447;44.530;18.620;2023-12-07T04:28:17;60.08;;;26.98;;
36415;SDS011;22447;44.530;18.620;2023-12-07T04:30:43;63.85;;;26.90;;
36415;SDS011;22447;44.530;18.620;2023-12-07T04:33:09;64.32;;;25.95;;
36415;SDS011;22447;44.530;18.620;2023-12-07T04:35:35;61.80;;;25.17;;
36415;SDS011;22447;44.530;18.620;2023-12-07T04:38:01;59.97;;;25.02;;
36415;SDS011;22447;44.530;18.620;2023-12-07T04:40:27;51.17;;;24.05;;
36415;SDS011;22447;44.530;18.620;2023-12-07T04:42:53;41.20;;;19.17;;
36415;SDS011;22447;44.530;18.620;2023-12-07T04:45:19;41.58;;;20.30;;
36415;SDS011;22447;44.530;18.620;2023-12-07T04:47:45;38.33;;;18.90;;
36415;SDS011;22447;44.530;18.620;2023-12-07T04:50:11;42.20;;;21.30;;
36415;SDS011;22447;44.530;18.620;2023-12-07T04:52:38;54.67;;;29.40;;
36415;SDS011;22447;44.530;18.620;2023-12-07T04:55:04;62.00;;;34.45;;
36415;SDS011;22447;44.530;18.620;2023-12-07T04:57:34;61.22;;;30.38;;
36415;SDS011;22447;44.530;18.620;2023-12-07T05:00:01;52.85;;;29.30;;
36415;SDS011;22447;44.530;18.620;2023-12-07T05:02:31;38.88;;;21.77;;
36415;SDS011;22447;44.530;18.620;2023-12-07T05:04:58;48.80;;;28.33;;
36415;SDS011;22447;44.530;18.620;2023-12-07T05:07:24;45.80;;;27.50;;
36415;SDS011;22447;44.530;18.620;2023-12-07T05:09:50;58.92;;;38.83;;
36415;SDS011;22447;44.530;18.620;2023-12-07T05:12:18;36.67;;;19.85;;
36415;SDS011;22447;44.530;18.620;2023-12-07T05:14:44;39.25;;;20.48;;
36415;SDS011;22447;44.530;18.620;2023-12-07T05:17:10;34.65;;;19.92;;
36415;SDS011;22447;44.530;18.620;2023-12-07T05:19:36;32.72;;;18.58;;
36415;SDS011;22447;44.530;18.620;2023-12-07T05:22:02;32.28;;;18.35;;
36415;SDS011;22447;44.530;18.620;2023-12-07T05:24:28;27.40;;;16.58;;
36415;SDS011;22447;44.530;18.620;2023-12-07T05:26:55;33.42;;;18.55;;
36415;SDS011;22447;44.530;18.620;2023-12-07T05:29:22;30.95;;;18.20;;
36415;SDS011;22447;44.530;18.620;2023-12-07T05:31:49;34.92;;;19.65;;
36415;SDS011;22447;44.530;18.620;2023-12-07T05:34:17;56.13;;;33.55;;
36415;SDS011;22447;44.530;18.620;2023-12-07T05:36:44;41.65;;;24.80;;
36415;SDS011;22447;44.530;18.620;2023-12-07T05:39:11;44.72;;;24.75;;
36415;SDS011;22447;44.530;18.620;2023-12-07T05:41:38;40.22;;;23.92;;
36415;SDS011;22447;44.530;18.620;2023-12-07T05:44:04;47.25;;;27.05;;
36415;SDS011;22447;44.530;18.620;2023-12-07T05:46:31;41.85;;;20.38;;
36415;SDS011;22447;44.530;18.620;2023-12-07T05:48:57;44.25;;;24.08;;
36415;SDS011;22447;44.530;18.620;2023-12-07T05:51:23;40.28;;;23.77;;
36415;SDS011;22447;44.530;18.620;2023-12-07T05:53:49;46.10;;;27.73;;
36415;SDS011;22447;44.530;18.620;2023-12-07T05:56:19;69.72;;;35.92;;
36415;SDS011;22447;44.530;18.620;2023-12-07T05:58:48;107.45;;;50.60;;
36415;SDS011;22447;44.530;18.620;2023-12-07T06:01:16;98.13;;;46.38;;
36415;SDS011;22447;44.530;18.620;2023-12-07T06:03:43;123.65;;;52.20;;
36415;SDS011;22447;44.530;18.620;2023-12-07T06:06:10;207.85;;;73.43;;
36415;SDS011;22447;44.530;18.620;2023-12-07T06:08:37;177.93;;;65.22;;
36415;SDS011;22447;44.530;18.620;2023-12-07T06:11:03;98.70;;;38.92;;
36415;SDS011;22447;44.530;18.620;2023-12-07T06:13:29;61.22;;;29.38;;
36415;SDS011;22447;44.530;18.620;2023-12-07T06:15:55;65.05;;;30.88;;
36415;SDS011;22447;44.530;18.620;2023-12-07T06:18:21;71.47;;;34.25;;
36415;SDS011;22447;44.530;18.620;2023-12-07T06:20:47;90.63;;;41.30;;
36415;SDS011;22447;44.530;18.620;2023-12-07T06:23:13;132.57;;;49.72;;
36415;SDS011;22447;44.530;18.620;2023-12-07T06:25:39;125.85;;;45.75;;
36415;SDS011;22447;44.530;18.620;2023-12-07T06:28:05;118.30;;;42.47;;
36415;SDS011;22447;44.530;18.620;2023-12-07T06:30:31;77.38;;;30.77;;
36415;SDS011;22447;44.530;18.620;2023-12-07T06:32:57;61.15;;;26.83;;
36415;SDS011;22447;44.530;18.620;2023-12-07T06:35:23;50.15;;;25.83;;
36415;SDS011;22447;44.530;18.620;2023-12-07T06:37:49;47.85;;;23.92;;
36415;SDS011;22447;44.530;18.620;2023-12-07T06:40:15;39.08;;;21.50;;
36415;SDS011;22447;44.530;18.620;2023-12-07T06:42:41;37.47;;;20.13;;
36415;SDS011;22447;44.530;18.620;2023-12-07T06:45:08;65.28;;;26.83;;
36415;SDS011;22447;44.530;18.620;2023-12-07T06:47:38;201.93;;;61.70;;
36415;SDS011;22447;44.530;18.620;2023-12-07T06:50:05;119.60;;;43.35;;
36415;SDS011;22447;44.530;18.620;2023-12-07T06:52:35;169.63;;;54.65;;
36415;SDS011;22447;44.530;18.620;2023-12-07T06:55:02;94.60;;;46.05;;
36415;SDS011;22447;44.530;18.620;2023-12-07T06:57:29;81.55;;;37.92;;
36415;SDS011;22447;44.530;18.620;2023-12-07T06:59:55;81.70;;;37.55;;
36415;SDS011;22447;44.530;18.620;2023-12-07T07:02:21;76.65;;;37.63;;
36415;SDS011;22447;44.530;18.620;2023-12-07T07:04:48;73.50;;;34.83;;
36415;SDS011;22447;44.530;18.620;2023-12-07T07:07:15;76.80;;;36.08;;
36415;SDS011;22447;44.530;18.620;2023-12-07T07:09:41;72.90;;;37.15;;
36415;SDS011;22447;44.530;18.620;2023-12-07T07:12:07;75.88;;;40.53;;
36415;SDS011;22447;44.530;18.620;2023-12-07T07:14:33;93.43;;;45.90;;
36415;SDS011;22447;44.530;18.620;2023-12-07T07:16:59;93.07;;;48.97;;
36415;SDS011;22447;44.530;18.620;2023-12-07T07:19:25;104.18;;;50.63;;
36415;SDS011;22447;44.530;18.620;2023-12-07T07:21:51;100.18;;;48.00;;
36415;SDS011;22447;44.530;18.620;2023-12-07T07:24:17;105.90;;;50.13;;
36415;SDS011;22447;44.530;18.620;2023-12-07T07:26:43;122.88;;;55.65;;
36415;SDS011;22447;44.530;18.620;2023-12-07T07:29:09;113.70;;;49.55;;
36415;SDS011;22447;44.530;18.620;2023-12-07T07:31:35;127.63;;;56.65;;
36415;SDS011;22447;44.530;18.620;2023-12-07T07:34:01;154.98;;;69.72;;
36415;SDS011;22447;44.530;18.620;2023-12-07T07:36:27;177.98;;;84.82;;
36415;SDS011;22447;44.530;18.620;2023-12-07T07:38:54;188.65;;;97.07;;
36415;SDS011;22447;44.530;18.620;2023-12-07T07:41:20;167.55;;;79.90;;
36415;SDS011;22447;44.530;18.620;2023-12-07T07:43:46;158.45;;;69.75;;
36415;SDS011;22447;44.530;18.620;2023-12-07T07:46:12;153.20;;;64.05;;
36415;SDS011;22447;44.530;18.620;2023-12-07T07:48:38;156.15;;;64.13;;
36415;SDS011;22447;44.530;18.620;2023-12-07T07:51:04;135.38;;;53.95;;
36415;SDS011;22447;44.530;18.620;2023-12-07T07:53:30;120.13;;;48.83;;
36415;SDS011;22447;44.530;18.620;2023-12-07T07:55:56;113.65;;;43.85;;
36415;SDS011;22447;44.530;18.620;2023-12-07T07:58:22;105.90;;;42.83;;
36415;SDS011;22447;44.530;18.620;2023-12-07T08:00:48;108.28;;;42.85;;
36415;SDS011;22447;44.530;18.620;2023-12-07T08:03:14;101.13;;;39.38;;
36415;SDS011;22447;44.530;18.620;2023-12-07T08:05:40;109.50;;;38.50;;
36415;SDS011;22447;44.530;18.620;2023-12-07T08:08:06;91.22;;;36.00;;
36415;SDS011;22447;44.530;18.620;2023-12-07T08:10:32;85.57;;;33.35;;
36415;SDS011;22447;44.530;18.620;2023-12-07T08:12:58;89.00;;;33.85;;
36415;SDS011;22447;44.530;18.620;2023-12-07T08:15:24;103.97;;;34.13;;
36415;SDS011;22447;44.530;18.620;2023-12-07T08:17:50;102.55;;;34.50;;
36415;SDS011;22447;44.530;18.620;2023-12-07T08:20:16;104.82;;;34.97;;
36415;SDS011;22447;44.530;18.620;2023-12-07T08:22:43;96.70;;;34.67;;
36415;SDS011;22447;44.530;18.620;2023-12-07T08:25:09;122.97;;;42.75;;
36415;SDS011;22447;44.530;18.620;2023-12-07T08:27:36;121.68;;;40.97;;
36415;SDS011;22447;44.530;18.620;2023-12-07T08:30:03;136.27;;;44.33;;
36415;SDS011;22447;44.530;18.620;2023-12-07T08:32:30;125.53;;;44.08;;
36415;SDS011;22447;44.530;18.620;2023-12-07T08:34:56;151.15;;;52.38;;
36415;SDS011;22447;44.530;18.620;2023-12-07T08:37:22;156.40;;;62.25;;
36415;SDS011;22447;44.530;18.620;2023-12-07T08:39:48;160.98;;;64.25;;
36415;SDS011;22447;44.530;18.620;2023-12-07T08:42:14;154.68;;;65.88;;
36415;SDS011;22447;44.530;18.620;2023-12-07T08:44:40;141.15;;;63.00;;
36415;SDS011;22447;44.530;18.620;2023-12-07T08:47:06;154.18;;;70.55;;
36415;SDS011;22447;44.530;18.620;2023-12-07T08:49:32;158.32;;;69.43;;
36415;SDS011;22447;44.530;18.620;2023-12-07T08:51:58;139.43;;;64.47;;
36415;SDS011;22447;44.530;18.620;2023-12-07T08:54:24;138.95;;;62.08;;
36415;SDS011;22447;44.530;18.620;2023-12-07T08:56:50;148.02;;;66.07;;
36415;SDS011;22447;44.530;18.620;2023-12-07T08:59:16;153.85;;;73.80;;
36415;SDS011;22447;44.530;18.620;2023-12-07T09:01:42;182.35;;;81.43;;
36415;SDS011;22447;44.530;18.620;2023-12-07T09:04:08;183.30;;;78.47;;
36415;SDS011;22447;44.530;18.620;2023-12-07T09:06:35;175.95;;;73.00;;
36415;SDS011;22447;44.530;18.620;2023-12-07T09:09:02;156.20;;;68.13;;
36415;SDS011;22447;44.530;18.620;2023-12-07T09:11:30;210.10;;;86.53;;
36415;SDS011;22447;44.530;18.620;2023-12-07T09:13:56;140.82;;;65.30;;
36415;SDS011;22447;44.530;18.620;2023-12-07T09:16:22;139.07;;;62.28;;
36415;SDS011;22447;44.530;18.620;2023-12-07T09:18:49;148.25;;;67.03;;
36415;SDS011;22447;44.530;18.620;2023-12-07T09:21:15;149.70;;;67.93;;
36415;SDS011;22447;44.530;18.620;2023-12-07T09:23:41;146.60;;;68.55;;
36415;SDS011;22447;44.530;18.620;2023-12-07T09:26:07;245.30;;;109.53;;
36415;SDS011;22447;44.530;18.620;2023-12-07T09:28:33;293.92;;;136.10;;
36415;SDS011;22447;44.530;18.620;2023-12-07T09:30:59;211.30;;;101.13;;
36415;SDS011;22447;44.530;18.620;2023-12-07T09:33:25;164.73;;;79.32;;
36415;SDS011;22447;44.530;18.620;2023-12-07T09:35:51;169.48;;;78.05;;
36415;SDS011;22447;44.530;18.620;2023-12-07T09:38:17;167.13;;;74.32;;
36415;SDS011;22447;44.530;18.620;2023-12-07T09:40:43;154.00;;;69.40;;
36415;SDS011;22447;44.530;18.620;2023-12-07T09:43:11;150.23;;;68.80;;
36415;SDS011;22447;44.530;18.620;2023-12-07T09:45:37;142.35;;;64.28;;
36415;SDS011;22447;44.530;18.620;2023-12-07T09:48:03;149.75;;;67.35;;
36415;SDS011;22447;44.530;18.620;2023-12-07T09:50:30;146.07;;;66.75;;
36415;SDS011;22447;44.530;18.620;2023-12-07T09:52:57;138.98;;;62.70;;
36415;SDS011;22447;44.530;18.620;2023-12-07T09:55:24;169.38;;;77.97;;
36415;SDS011;22447;44.530;18.620;2023-12-07T09:57:52;170.15;;;75.88;;
36415;SDS011;22447;44.530;18.620;2023-12-07T10:00:22;148.82;;;69.20;;
36415;SDS011;22447;44.530;18.620;2023-12-07T10:02:48;147.88;;;66.72;;
36415;SDS011;22447;44.530;18.620;2023-12-07T10:05:15;146.07;;;68.55;;
36415;SDS011;22447;44.530;18.620;2023-12-07T10:07:45;139.48;;;67.47;;
36415;SDS011;22447;44.530;18.620;2023-12-07T10:10:13;151.13;;;70.63;;
36415;SDS011;22447;44.530;18.620;2023-12-07T10:12:46;150.82;;;68.22;;
36415;SDS011;22447;44.530;18.620;2023-12-07T10:15:14;129.80;;;59.60;;
36415;SDS011;22447;44.530;18.620;2023-12-07T10:17:51;135.40;;;60.13;;
36415;SDS011;22447;44.530;18.620;2023-12-07T10:20:24;126.15;;;58.95;;
36415;SDS011;22447;44.530;18.620;2023-12-07T10:23:05;143.25;;;59.58;;
36415;SDS011;22447;44.530;18.620;2023-12-07T10:25:35;123.95;;;56.28;;
36415;SDS011;22447;44.530;18.620;2023-12-07T10:28:03;145.75;;;61.58;;
36415;SDS011;22447;44.530;18.620;2023-12-07T10:30:32;163.52;;;64.72;;
36415;SDS011;22447;44.530;18.620;2023-12-07T10:32:59;143.10;;;61.55;;
36415;SDS011;22447;44.530;18.620;2023-12-07T10:35:25;141.55;;;62.63;;
36415;SDS011;22447;44.530;18.620;2023-12-07T10:37:51;151.80;;;62.63;;
36415;SDS011;22447;44.530;18.620;2023-12-07T10:40:17;158.60;;;65.80;;
36415;SDS011;22447;44.530;18.620;2023-12-07T10:42:47;161.93;;;66.85;;
36415;SDS011;22447;44.530;18.620;2023-12-07T10:45:14;154.55;;;66.50;;
36415;SDS011;22447;44.530;18.620;2023-12-07T10:47:43;165.68;;;72.65;;
36415;SDS011;22447;44.530;18.620;2023-12-07T10:50:10;153.15;;;65.20;;
36415;SDS011;22447;44.530;18.620;2023-12-07T10:52:44;148.90;;;63.33;;
36415;SDS011;22447;44.530;18.620;2023-12-07T10:55:16;142.68;;;55.50;;
36415;SDS011;22447;44.530;18.620;2023-12-07T10:57:45;145.98;;;56.97;;
36415;SDS011;22447;44.530;18.620;2023-12-07T11:00:12;150.38;;;54.80;;
36415;SDS011;22447;44.530;18.620;2023-12-07T11:02:39;132.02;;;48.42;;
36415;SDS011;22447;44.530;18.620;2023-12-07T11:05:06;130.77;;;50.78;;
36415;SDS011;22447;44.530;18.620;2023-12-07T11:07:38;118.97;;;46.95;;
36415;SDS011;22447;44.530;18.620;2023-12-07T11:13:24;120.55;;;44.22;;
36415;SDS011;22447;44.530;18.620;2023-12-07T11:15:54;165.40;;;56.05;;
36415;SDS011;22447;44.530;18.620;2023-12-07T11:18:21;153.75;;;53.60;;
36415;SDS011;22447;44.530;18.620;2023-12-07T11:20:47;149.50;;;50.50;;
36415;SDS011;22447;44.530;18.620;2023-12-07T11:23:16;161.23;;;54.42;;
36415;SDS011;22447;44.530;18.620;2023-12-07T11:25:46;170.88;;;53.33;;
36415;SDS011;22447;44.530;18.620;2023-12-07T11:28:13;222.80;;;68.55;;
36415;SDS011;22447;44.530;18.620;2023-12-07T11:30:44;126.80;;;45.95;;
36415;SDS011;22447;44.530;18.620;2023-12-07T11:33:11;113.15;;;42.40;;
36415;SDS011;22447;44.530;18.620;2023-12-07T11:38:27;94.50;;;39.33;;
36415;SDS011;22447;44.530;18.620;2023-12-07T11:40:53;103.57;;;43.08;;
36415;SDS011;22447;44.530;18.620;2023-12-07T11:45:58;64.03;;;27.67;;
36415;SDS011;22447;44.530;18.620;2023-12-07T11:48:25;52.75;;;23.60;;
36415;SDS011;22447;44.530;18.620;2023-12-07T11:50:57;56.60;;;23.63;;
36415;SDS011;22447;44.530;18.620;2023-12-07T11:53:24;54.28;;;22.85;;
36415;SDS011;22447;44.530;18.620;2023-12-07T11:55:51;42.92;;;19.63;;
36415;SDS011;22447;44.530;18.620;2023-12-07T11:58:18;40.85;;;16.95;;
36415;SDS011;22447;44.530;18.620;2023-12-07T12:00:45;35.28;;;14.93;;
36415;SDS011;22447;44.530;18.620;2023-12-07T12:03:14;37.58;;;16.38;;
36415;SDS011;22447;44.530;18.620;2023-12-07T12:05:40;42.15;;;19.85;;
36415;SDS011;22447;44.530;18.620;2023-12-07T12:08:08;34.50;;;19.95;;
36415;SDS011;22447;44.530;18.620;2023-12-07T12:10:34;39.60;;;17.27;;
36415;SDS011;22447;44.530;18.620;2023-12-07T12:13:03;34.28;;;16.63;;
36415;SDS011;22447;44.530;18.620;2023-12-07T12:15:30;23.15;;;12.30;;
36415;SDS011;22447;44.530;18.620;2023-12-07T12:17:56;34.60;;;17.23;;
36415;SDS011;22447;44.530;18.620;2023-12-07T12:20:23;22.85;;;11.82;;
36415;SDS011;22447;44.530;18.620;2023-12-07T12:22:53;22.98;;;11.75;;
36415;SDS011;22447;44.530;18.620;2023-12-07T12:25:22;25.63;;;11.15;;
36415;SDS011;22447;44.530;18.620;2023-12-07T12:27:54;19.17;;;9.23;;
36415;SDS011;22447;44.530;18.620;2023-12-07T12:30:24;25.23;;;12.75;;
36415;SDS011;22447;44.530;18.620;2023-12-07T12:32:50;26.95;;;11.27;;
36415;SDS011;22447;44.530;18.620;2023-12-07T12:35:17;25.77;;;10.38;;
36415;SDS011;22447;44.530;18.620;2023-12-07T12:37:43;20.17;;;11.10;;
36415;SDS011;22447;44.530;18.620;2023-12-07T12:40:10;30.95;;;12.93;;
36415;SDS011;22447;44.530;18.620;2023-12-07T12:42:37;22.65;;;12.10;;
36415;SDS011;22447;44.530;18.620;2023-12-07T12:45:04;39.08;;;18.83;;
36415;SDS011;22447;44.530;18.620;2023-12-07T12:47:33;45.20;;;22.60;;
36415;SDS011;22447;44.530;18.620;2023-12-07T12:50:00;42.00;;;22.15;;
36415;SDS011;22447;44.530;18.620;2023-12-07T12:52:29;45.63;;;26.15;;
36415;SDS011;22447;44.530;18.620;2023-12-07T12:54:56;26.42;;;14.00;;
36415;SDS011;22447;44.530;18.620;2023-12-07T12:57:23;29.30;;;15.75;;
36415;SDS011;22447;44.530;18.620;2023-12-07T12:59:51;23.88;;;13.02;;
36415;SDS011;22447;44.530;18.620;2023-12-07T13:02:19;28.38;;;15.30;;
36415;SDS011;22447;44.530;18.620;2023-12-07T13:04:45;26.10;;;15.80;;
36415;SDS011;22447;44.530;18.620;2023-12-07T13:07:12;27.73;;;17.55;;
36415;SDS011;22447;44.530;18.620;2023-12-07T13:09:39;26.10;;;14.35;;
36415;SDS011;22447;44.530;18.620;2023-12-07T13:12:05;24.23;;;14.02;;
36415;SDS011;22447;44.530;18.620;2023-12-07T13:14:32;33.65;;;16.25;;
36415;SDS011;22447;44.530;18.620;2023-12-07T13:17:03;36.60;;;20.25;;
36415;SDS011;22447;44.530;18.620;2023-12-07T13:19:30;30.85;;;16.90;;
36415;SDS011;22447;44.530;18.620;2023-12-07T13:21:57;28.30;;;15.63;;
36415;SDS011;22447;44.530;18.620;2023-12-07T13:24:22;37.83;;;18.02;;
36415;SDS011;22447;44.530;18.620;2023-12-07T13:26:48;31.40;;;18.80;;
36415;SDS011;22447;44.530;18.620;2023-12-07T13:29:14;34.22;;;21.08;;
36415;SDS011;22447;44.530;18.620;2023-12-07T13:31:44;39.47;;;22.48;;
36415;SDS011;22447;44.530;18.620;2023-12-07T13:34:11;37.17;;;21.40;;
36415;SDS011;22447;44.530;18.620;2023-12-07T13:36:39;37.58;;;22.45;;
36415;SDS011;22447;44.530;18.620;2023-12-07T13:39:06;40.20;;;20.63;;
36415;SDS011;22447;44.530;18.620;2023-12-07T13:41:34;35.25;;;20.67;;
36415;SDS011;22447;44.530;18.620;2023-12-07T13:44:00;34.05;;;20.50;;
36415;SDS011;22447;44.530;18.620;2023-12-07T13:46:30;42.20;;;23.73;;
36415;SDS011;22447;44.530;18.620;2023-12-07T13:48:56;41.08;;;24.40;;
36415;SDS011;22447;44.530;18.620;2023-12-07T13:51:22;42.22;;;24.33;;
36415;SDS011;22447;44.530;18.620;2023-12-07T13:53:48;48.70;;;24.75;;
36415;SDS011;22447;44.530;18.620;2023-12-07T13:56:20;41.70;;;24.88;;
36415;SDS011;22447;44.530;18.620;2023-12-07T13:58:47;45.65;;;24.52;;
36415;SDS011;22447;44.530;18.620;2023-12-07T14:01:13;39.80;;;21.95;;
36415;SDS011;22447;44.530;18.620;2023-12-07T14:03:39;43.72;;;21.98;;
36415;SDS011;22447;44.530;18.620;2023-12-07T14:06:05;48.53;;;23.23;;
36415;SDS011;22447;44.530;18.620;2023-12-07T14:08:31;39.85;;;23.13;;
36415;SDS011;22447;44.530;18.620;2023-12-07T14:10:57;45.25;;;24.20;;